createdAt,value
2017-12-17T00:01:20.478Z,101080.86
2017-12-17T00:03:48.823Z,101084.00
2017-12-17T00:06:17.771Z,101081.94
2017-12-17T00:08:46.877Z,101090.30
2017-12-17T00:11:15.352Z,101092.84
2017-12-17T00:13:44.768Z,101096.14
2017-12-17T00:16:13.422Z,101102.46
2017-12-17T00:18:42.594Z,101099.72
2017-12-17T00:21:10.952Z,101107.44
2017-12-17T00:23:39.582Z,101102.27
2017-12-17T00:26:07.945Z,101103.31
2017-12-17T00:28:36.253Z,101101.70
2017-12-17T00:31:05.933Z,101106.45
2017-12-17T00:33:34.274Z,101111.46
2017-12-17T00:36:02.597Z,101108.51
2017-12-17T00:38:31.317Z,101108.47
2017-12-17T00:41:15.471Z,101110.61
2017-12-17T00:43:44.170Z,101113.94
2017-12-17T00:46:13.212Z,101114.52
2017-12-17T00:48:41.545Z,101117.08
2017-12-17T00:51:10.296Z,101126.13
2017-12-17T00:53:38.634Z,101123.58
2017-12-17T00:56:06.967Z,101128.86
2017-12-17T00:58:35.304Z,101142.37
2017-12-17T01:01:03.654Z,101143.72
2017-12-17T01:03:31.976Z,101150.20
2017-12-17T01:06:00.345Z,101151.95
2017-12-17T01:08:28.699Z,101156.60
2017-12-17T01:10:57.024Z,101154.45
2017-12-17T01:13:26.290Z,101162.85
2017-12-17T01:15:54.633Z,101150.29
2017-12-17T01:18:22.960Z,101158.20
2017-12-17T01:20:51.320Z,101145.64
2017-12-17T01:23:19.653Z,101162.34
2017-12-17T01:25:48.738Z,101171.86
2017-12-17T01:28:17.854Z,101174.92
2017-12-17T01:30:46.162Z,101182.89
2017-12-17T01:33:14.507Z,101180.64
2017-12-17T01:35:43.055Z,101178.03
2017-12-17T01:38:11.409Z,101179.47
2017-12-17T01:40:39.750Z,101181.03
2017-12-17T01:43:08.124Z,101186.97
2017-12-17T01:45:36.483Z,101188.55
2017-12-17T01:48:05.588Z,101197.11
2017-12-17T01:50:34.752Z,101197.53
2017-12-17T01:53:03.076Z,101188.94
2017-12-17T01:55:31.400Z,101195.52
2017-12-17T01:57:59.922Z,101190.36
2017-12-17T02:00:28.240Z,101190.26
2017-12-17T02:02:56.560Z,101191.31
2017-12-17T02:05:24.903Z,101180.81
2017-12-17T02:07:53.225Z,101179.98
2017-12-17T02:10:21.553Z,101184.29
2017-12-17T02:12:49.915Z,101192.58
2017-12-17T02:15:18.223Z,101194.09
2017-12-17T02:17:46.540Z,101202.19
2017-12-17T02:20:16.003Z,101207.41
2017-12-17T02:22:44.315Z,101212.12
2017-12-17T02:25:12.629Z,101215.88
2017-12-17T02:27:41.028Z,101217.14
2017-12-17T02:30:09.430Z,101212.71
2017-12-17T02:32:38.540Z,101224.23
2017-12-17T02:35:06.934Z,101229.14
2017-12-17T02:37:35.272Z,101228.88
2017-12-17T02:40:03.672Z,101240.53
2017-12-17T02:42:32.244Z,101250.44
2017-12-17T02:45:00.624Z,101241.42
2017-12-17T02:47:28.959Z,101246.81
2017-12-17T02:49:58.098Z,101251.35
2017-12-17T02:52:26.466Z,101253.47
2017-12-17T02:54:54.798Z,101258.34
2017-12-17T02:57:23.130Z,101255.56
2017-12-17T02:59:51.451Z,101253.05
2017-12-17T03:02:19.772Z,101268.16
2017-12-17T03:04:48.532Z,101265.66
2017-12-17T03:07:17.825Z,101270.14
2017-12-17T03:09:46.162Z,101274.15
2017-12-17T03:12:14.530Z,101274.59
2017-12-17T03:14:42.882Z,101277.86
2017-12-17T03:17:11.193Z,101285.28
2017-12-17T03:19:39.560Z,101284.42
2017-12-17T03:22:07.890Z,101288.64
2017-12-17T03:27:34.370Z,101295.20
2017-12-17T03:30:02.697Z,101298.55
2017-12-17T03:32:31.047Z,101294.84
2017-12-17T03:34:59.652Z,101301.83
2017-12-17T03:37:28.772Z,101293.42
2017-12-17T03:39:57.690Z,101293.97
2017-12-17T03:42:26.350Z,101294.92
2017-12-17T03:44:54.673Z,101305.27
2017-12-17T03:47:23.019Z,101303.12
2017-12-17T03:49:51.952Z,101310.37
2017-12-17T03:52:20.288Z,101312.20
2017-12-17T03:54:48.589Z,101305.20
2017-12-17T03:57:18.099Z,101315.03
2017-12-17T04:00:02.142Z,101322.06
2017-12-17T04:02:31.540Z,101328.86
2017-12-17T04:04:59.860Z,101332.37
2017-12-17T04:07:28.203Z,101330.31
2017-12-17T04:09:57.046Z,101340.70
2017-12-17T04:12:25.356Z,101340.34
2017-12-17T04:14:54.457Z,101335.51
2017-12-17T04:17:23.842Z,101334.33
2017-12-17T04:19:52.190Z,101343.24
2017-12-17T04:22:20.526Z,101353.47
2017-12-17T04:24:49.141Z,101353.16
2017-12-17T04:27:17.480Z,101352.02
2017-12-17T04:29:47.286Z,101357.71
2017-12-17T04:32:16.354Z,101361.95
2017-12-17T04:34:44.695Z,101372.41
2017-12-17T04:37:13.025Z,101384.67
2017-12-17T04:39:41.617Z,101384.95
2017-12-17T04:42:09.956Z,101381.20
2017-12-17T04:44:56.399Z,101391.55
2017-12-17T04:47:24.730Z,101380.23
2017-12-17T04:49:53.060Z,101385.44
2017-12-17T04:52:22.865Z,101388.95
2017-12-17T04:54:51.223Z,101396.24
2017-12-17T04:57:19.618Z,101401.50
2017-12-17T04:59:48.502Z,101402.79
2017-12-17T05:02:16.789Z,101408.27
2017-12-17T05:04:45.126Z,101413.56
2017-12-17T05:07:14.616Z,101410.89
2017-12-17T05:09:43.034Z,101420.81
2017-12-17T05:12:11.393Z,101422.41
2017-12-17T05:14:40.217Z,101427.25
2017-12-17T05:17:21.292Z,101425.69
2017-12-17T05:19:49.939Z,101428.95
2017-12-17T05:22:18.323Z,101436.15
2017-12-17T05:24:46.691Z,101440.55
2017-12-17T05:27:15.479Z,101438.67
2017-12-17T05:29:43.898Z,101447.41
2017-12-17T05:32:12.351Z,101452.40
2017-12-17T05:34:41.280Z,101453.74
2017-12-17T05:37:09.684Z,101460.07
2017-12-17T05:39:38.876Z,101466.29
2017-12-17T05:42:07.802Z,101466.91
2017-12-17T05:44:36.221Z,101471.59
2017-12-17T05:47:04.621Z,101472.02
2017-12-17T05:49:33.453Z,101483.34
2017-12-17T05:52:01.862Z,101483.67
2017-12-17T05:54:30.226Z,101488.33
2017-12-17T05:56:59.361Z,101492.77
2017-12-17T05:59:27.844Z,101502.28
2017-12-17T06:01:56.236Z,101511.38
2017-12-17T06:04:25.659Z,101504.16
2017-12-17T06:06:54.088Z,101506.20
2017-12-17T06:09:22.519Z,101501.16
2017-12-17T06:11:51.478Z,101512.09
2017-12-17T06:14:19.961Z,101513.87
2017-12-17T06:16:48.409Z,101517.30
2017-12-17T06:19:17.409Z,101515.86
2017-12-17T06:21:45.819Z,101529.10
2017-12-17T06:24:14.238Z,101521.90
2017-12-17T06:26:43.110Z,101528.37
2017-12-17T06:29:12.287Z,101533.31
2017-12-17T06:31:40.587Z,101533.53
2017-12-17T06:34:09.281Z,101536.50
2017-12-17T06:36:37.694Z,101540.76
2017-12-17T06:39:06.115Z,101538.52
2017-12-17T06:41:35.083Z,101546.20
2017-12-17T06:44:03.453Z,101554.06
2017-12-17T06:46:42.041Z,101558.26
2017-12-17T06:49:10.568Z,101564.48
2017-12-17T06:51:38.963Z,101568.71
2017-12-17T06:54:07.761Z,101574.92
2017-12-17T06:56:36.116Z,101584.13
2017-12-17T06:59:04.440Z,101584.59
2017-12-17T07:01:34.064Z,101592.83
2017-12-17T07:04:02.362Z,101591.23
2017-12-17T07:06:30.700Z,101597.93
2017-12-17T07:09:00.316Z,101598.43
2017-12-17T07:11:29.387Z,101602.50
2017-12-17T07:13:57.691Z,101604.43
2017-12-17T07:16:26.299Z,101607.23
2017-12-17T07:18:54.720Z,101618.66
2017-12-17T07:21:23.052Z,101629.18
2017-12-17T07:23:52.435Z,101626.15
2017-12-17T07:26:21.526Z,101626.45
2017-12-17T07:28:50.663Z,101628.88
2017-12-17T07:31:19.304Z,101636.72
2017-12-17T07:33:47.637Z,101635.42
2017-12-17T07:36:15.967Z,101638.00
2017-12-17T07:38:45.479Z,101641.52
2017-12-17T07:41:14.562Z,101646.77
2017-12-17T07:43:43.681Z,101655.90
2017-12-17T07:46:12.656Z,101661.97
2017-12-17T07:48:40.962Z,101660.85
2017-12-17T07:51:09.329Z,101664.50
2017-12-17T07:53:38.097Z,101667.87
2017-12-17T07:56:06.401Z,101678.15
2017-12-17T07:58:34.732Z,101686.06
2017-12-17T08:01:03.336Z,101681.40
2017-12-17T08:03:31.697Z,101698.70
2017-12-17T08:06:00.999Z,101696.73
2017-12-17T08:08:29.660Z,101705.84
2017-12-17T08:10:58.048Z,101709.38
2017-12-17T08:13:26.341Z,101715.13
2017-12-17T08:15:54.747Z,101711.41
2017-12-17T08:18:23.085Z,101710.24
2017-12-17T08:20:51.482Z,101716.28
2017-12-17T08:23:19.862Z,101718.96
2017-12-17T08:25:48.204Z,101727.59
2017-12-17T08:28:16.516Z,101732.06
2017-12-17T08:30:45.135Z,101734.25
2017-12-17T08:33:13.444Z,101733.09
2017-12-17T08:35:41.801Z,101738.80
2017-12-17T08:38:10.563Z,101734.45
2017-12-17T08:40:50.731Z,101742.88
2017-12-17T08:43:19.839Z,101742.50
2017-12-17T08:45:48.137Z,101738.42
2017-12-17T08:48:16.612Z,101750.18
2017-12-17T08:50:45.061Z,101750.10
2017-12-17T08:53:14.162Z,101752.62
2017-12-17T08:55:43.243Z,101754.66
2017-12-17T08:58:11.638Z,101758.31
2017-12-17T09:00:40.713Z,101766.13
2017-12-17T09:03:13.966Z,101773.39
2017-12-17T09:05:42.341Z,101772.33
2017-12-17T09:08:10.676Z,101780.22
2017-12-17T09:10:39.950Z,101782.28
2017-12-17T09:13:09.059Z,101781.47
2017-12-17T09:15:38.170Z,101791.46
2017-12-17T09:18:07.316Z,101803.25
2017-12-17T09:20:35.647Z,101814.84
2017-12-17T09:23:03.969Z,101811.89
2017-12-17T09:25:32.443Z,101819.25
2017-12-17T09:28:00.782Z,101824.75
2017-12-17T09:30:29.157Z,101822.74
2017-12-17T09:32:57.872Z,101830.76
2017-12-17T09:35:26.264Z,101829.75
2017-12-17T09:37:54.593Z,101829.32
2017-12-17T09:40:22.989Z,101831.80
2017-12-17T09:42:52.073Z,101839.77
2017-12-17T09:45:21.210Z,101845.54
2017-12-17T09:47:49.631Z,101850.98
2017-12-17T09:50:17.992Z,101852.97
2017-12-17T09:52:46.331Z,101849.00
2017-12-17T09:55:14.846Z,101837.51
2017-12-17T10:00:40.003Z,101835.73
2017-12-17T10:03:08.364Z,101842.19
2017-12-17T10:05:36.711Z,101845.14
2017-12-17T10:08:05.122Z,101848.80
2017-12-17T10:10:33.476Z,101849.77
2017-12-17T10:13:01.798Z,101856.00
2017-12-17T10:15:30.531Z,101851.03
2017-12-17T10:17:58.907Z,101852.12
2017-12-17T10:20:27.271Z,101852.81
2017-12-17T10:22:55.677Z,101849.69
2017-12-17T10:25:24.102Z,101843.16
2017-12-17T10:27:53.237Z,101854.91
2017-12-17T10:30:21.620Z,101851.94
2017-12-17T10:32:49.999Z,101857.92
2017-12-17T10:35:19.392Z,101842.95
2017-12-17T10:37:48.753Z,101845.48
2017-12-17T10:40:17.568Z,101850.09
2017-12-17T10:42:46.027Z,101846.03
2017-12-17T10:45:15.361Z,101845.55
2017-12-17T10:47:43.891Z,101847.76
2017-12-17T10:50:12.306Z,101850.15
2017-12-17T10:52:40.703Z,101857.74
2017-12-17T10:55:09.092Z,101855.31
2017-12-17T10:57:38.295Z,101858.02
2017-12-17T11:00:07.159Z,101849.56
2017-12-17T11:02:36.422Z,101858.02
2017-12-17T11:05:04.747Z,101859.34
2017-12-17T11:07:33.931Z,101863.53
2017-12-17T11:10:02.395Z,101863.53
2017-12-17T11:12:30.895Z,101858.75
2017-12-17T11:14:59.329Z,101859.02
2017-12-17T11:17:27.859Z,101851.48
2017-12-17T11:19:57.855Z,101855.31
2017-12-17T11:22:27.150Z,101855.98
2017-12-17T11:24:56.417Z,101852.78
2017-12-17T11:27:24.966Z,101859.22
2017-12-17T11:30:07.315Z,101860.37
2017-12-17T11:32:36.074Z,101864.80
2017-12-17T11:35:05.327Z,101870.52
2017-12-17T11:37:34.553Z,101866.16
2017-12-17T11:42:27.318Z,101862.78
2017-12-17T11:44:55.706Z,101866.33
2017-12-17T11:47:24.096Z,101866.80
2017-12-17T11:49:53.388Z,101872.20
2017-12-17T11:52:22.479Z,101870.59
2017-12-17T11:54:50.936Z,101874.00
2017-12-17T11:57:19.416Z,101870.83
2017-12-17T11:59:47.939Z,101876.72
2017-12-17T12:02:17.249Z,101879.03
2017-12-17T12:04:46.765Z,101880.14
2017-12-17T12:07:15.129Z,101876.14
2017-12-17T12:09:43.665Z,101879.17
2017-12-17T12:12:12.069Z,101877.87
2017-12-17T12:14:40.489Z,101879.34
2017-12-17T12:17:09.048Z,101879.42
2017-12-17T12:19:37.407Z,101883.45
2017-12-17T12:22:05.845Z,101879.08
2017-12-17T12:24:34.240Z,101884.81
2017-12-17T12:27:02.993Z,101874.00
2017-12-17T12:29:31.344Z,101874.37
2017-12-17T12:31:59.693Z,101879.17
2017-12-17T12:34:28.073Z,101876.92
2017-12-17T12:36:57.241Z,101886.76
2017-12-17T12:39:25.572Z,101887.55
2017-12-17T12:41:53.948Z,101890.45
2017-12-17T12:44:22.347Z,101895.33
2017-12-17T12:46:51.470Z,101892.30
2017-12-17T12:49:20.074Z,101884.56
2017-12-17T12:51:48.452Z,101887.42
2017-12-17T12:54:16.998Z,101892.33
2017-12-17T12:56:46.165Z,101892.59
2017-12-17T12:59:14.515Z,101895.45
2017-12-17T13:01:42.888Z,101893.33
2017-12-17T13:04:17.952Z,101897.75
2017-12-17T13:06:46.289Z,101905.31
2017-12-17T13:09:14.608Z,101899.97
2017-12-17T13:11:43.158Z,101899.30
2017-12-17T13:14:11.807Z,101901.99
2017-12-17T13:16:40.136Z,101902.12
2017-12-17T13:19:08.568Z,101902.61
2017-12-17T13:21:37.666Z,101902.84
2017-12-17T13:24:06.792Z,101908.25
2017-12-17T13:26:51.971Z,101918.81
2017-12-17T13:29:20.339Z,101908.73
2017-12-17T13:31:48.689Z,101914.45
2017-12-17T13:34:17.095Z,101919.98
2017-12-17T13:36:45.438Z,101914.87
2017-12-17T13:39:13.747Z,101915.05
2017-12-17T13:41:42.881Z,101922.84
2017-12-17T13:44:11.217Z,101921.99
2017-12-17T13:46:40.326Z,101922.14
2017-12-17T13:49:09.719Z,101931.63
2017-12-17T13:51:38.834Z,101938.09
2017-12-17T13:54:07.329Z,101941.77
2017-12-17T13:56:35.753Z,101938.92
2017-12-17T13:59:04.151Z,101943.97
2017-12-17T14:01:33.252Z,101945.28
2017-12-17T14:04:02.365Z,101942.19
2017-12-17T14:06:30.668Z,101943.29
2017-12-17T14:08:59.245Z,101946.05
2017-12-17T14:11:28.093Z,101943.09
2017-12-17T14:13:56.438Z,101946.20
2017-12-17T14:16:24.994Z,101953.92
2017-12-17T14:18:53.374Z,101957.91
2017-12-17T14:21:21.713Z,101957.41
2017-12-17T14:23:50.825Z,101954.64
2017-12-17T14:26:19.183Z,101958.66
2017-12-17T14:28:50.457Z,101958.09
2017-12-17T14:31:19.558Z,101952.90
2017-12-17T14:33:48.004Z,101955.19
2017-12-17T14:36:17.212Z,101955.40
2017-12-17T14:38:47.000Z,101959.16
2017-12-17T14:41:15.365Z,101965.84
2017-12-17T14:43:43.715Z,101965.70
2017-12-17T14:46:12.114Z,101968.12
2017-12-17T14:48:40.508Z,101976.56
2017-12-17T14:51:08.812Z,101978.08
2017-12-17T14:53:37.146Z,101981.33
2017-12-17T14:56:05.586Z,101980.98
2017-12-17T14:58:34.686Z,101984.39
2017-12-17T15:01:03.833Z,101992.47
2017-12-17T15:03:32.192Z,102002.92
2017-12-17T15:06:01.286Z,102007.10
2017-12-17T15:08:29.756Z,102010.17
2017-12-17T15:10:58.141Z,102016.22
2017-12-17T15:13:26.519Z,102013.89
2017-12-17T15:15:54.850Z,102018.18
2017-12-17T15:18:24.345Z,102021.92
2017-12-17T15:20:52.687Z,102018.18
2017-12-17T15:23:21.002Z,102019.34
2017-12-17T15:25:49.376Z,102022.84
2017-12-17T15:28:17.762Z,102012.30
2017-12-17T15:30:46.113Z,102014.84
2017-12-17T15:33:14.527Z,102016.08
2017-12-17T15:35:42.861Z,102005.55
2017-12-17T15:38:11.312Z,102016.42
2017-12-17T15:40:39.954Z,102018.48
2017-12-17T15:43:08.354Z,102027.30
2017-12-17T15:45:36.712Z,102033.58
2017-12-17T15:48:05.183Z,102030.94
2017-12-17T15:50:33.585Z,102030.50
2017-12-17T15:53:02.100Z,102029.72
2017-12-17T15:55:30.511Z,102025.45
2017-12-17T15:57:58.845Z,102032.02
2017-12-17T16:00:27.252Z,102025.16
2017-12-17T16:02:56.445Z,102030.25
2017-12-17T16:05:25.552Z,102026.72
2017-12-17T16:07:53.959Z,102030.52
2017-12-17T16:10:22.344Z,102021.88
2017-12-17T16:12:50.686Z,102034.27
2017-12-17T16:15:19.005Z,102040.22
2017-12-17T16:17:47.478Z,102043.51
2017-12-17T16:20:39.881Z,102045.41
2017-12-17T16:23:09.336Z,102049.77
2017-12-17T16:25:37.697Z,102051.94
2017-12-17T16:28:06.069Z,102049.70
2017-12-17T16:30:34.413Z,102047.41
2017-12-17T16:33:20.287Z,102046.66
2017-12-17T16:35:48.621Z,102055.70
2017-12-17T16:38:16.997Z,102057.33
2017-12-17T16:40:46.317Z,102052.97
2017-12-17T16:43:15.704Z,102056.03
2017-12-17T16:45:44.047Z,102054.55
2017-12-17T16:48:13.133Z,102050.06
2017-12-17T16:50:42.306Z,102048.88
2017-12-17T16:53:10.659Z,102057.52
2017-12-17T16:55:39.095Z,102057.67
2017-12-17T16:58:07.473Z,102058.59
2017-12-17T17:00:36.566Z,102051.72
2017-12-17T17:03:05.662Z,102054.83
2017-12-17T17:05:34.375Z,102053.08
2017-12-17T17:08:03.466Z,102055.39
2017-12-17T17:10:33.036Z,102056.27
2017-12-17T17:13:01.387Z,102051.52
2017-12-17T17:15:29.740Z,102048.83
2017-12-17T17:17:58.298Z,102048.96
2017-12-17T17:20:26.671Z,102048.35
2017-12-17T17:22:55.016Z,102044.39
2017-12-17T17:25:23.393Z,102051.83
2017-12-17T17:27:51.934Z,102044.52
2017-12-17T17:30:20.261Z,102049.92
2017-12-17T17:32:48.620Z,102038.64
2017-12-17T17:35:17.041Z,102039.26
2017-12-17T17:37:45.421Z,102029.20
2017-12-17T17:40:13.793Z,102024.98
2017-12-17T17:42:42.196Z,102024.84
2017-12-17T17:45:11.317Z,102028.52
2017-12-17T17:47:39.646Z,102022.97
2017-12-17T17:50:08.588Z,102025.72
2017-12-17T17:52:36.911Z,102027.33
2017-12-17T17:55:05.258Z,102032.68
2017-12-17T17:57:33.677Z,102017.45
2017-12-17T18:00:03.054Z,102027.00
2017-12-17T18:02:31.432Z,102021.54
2017-12-17T18:04:59.804Z,102013.45
2017-12-17T18:07:28.171Z,102013.09
2017-12-17T18:09:56.532Z,102015.67
2017-12-17T18:12:25.794Z,102009.24
2017-12-17T18:14:54.082Z,102022.21
2017-12-17T18:17:22.423Z,102016.75
2017-12-17T18:19:50.969Z,102021.03
2017-12-17T18:22:20.182Z,102009.91
2017-12-17T18:24:48.640Z,102011.36
2017-12-17T18:27:17.803Z,102012.81
2017-12-17T18:29:46.750Z,102018.12
2017-12-17T18:32:15.115Z,102022.28
2017-12-17T18:34:43.957Z,102024.44
2017-12-17T18:37:12.275Z,102020.44
2017-12-17T18:39:41.386Z,102020.28
2017-12-17T18:42:10.532Z,102028.31
2017-12-17T18:44:39.039Z,102023.14
2017-12-17T18:47:07.405Z,102026.79
2017-12-17T18:49:35.749Z,102026.51
2017-12-17T18:52:04.106Z,102029.84
2017-12-17T18:54:32.458Z,102026.92
2017-12-17T18:57:01.093Z,102034.26
2017-12-17T18:59:29.445Z,102033.33
2017-12-17T19:01:57.789Z,102031.96
2017-12-17T19:04:26.151Z,102033.37
2017-12-17T19:06:54.515Z,102032.91
2017-12-17T19:09:22.844Z,102038.05
2017-12-17T19:11:51.982Z,102046.15
2017-12-17T19:14:20.304Z,102036.23
2017-12-17T19:16:48.641Z,102039.34
2017-12-17T19:19:19.949Z,102038.11
2017-12-17T19:21:49.326Z,102043.63
2017-12-17T19:24:17.685Z,102041.62
2017-12-17T19:26:46.071Z,102042.81
2017-12-17T19:29:14.467Z,102041.00
2017-12-17T19:31:42.938Z,102037.19
2017-12-17T19:34:11.783Z,102038.47
2017-12-17T19:36:40.118Z,102035.97
2017-12-17T19:39:08.481Z,102038.69
2017-12-17T19:41:36.921Z,102047.06
2017-12-17T19:44:06.022Z,102049.69
2017-12-17T19:46:34.697Z,102039.23
2017-12-17T19:49:03.888Z,102047.13
2017-12-17T19:51:32.387Z,102040.25
2017-12-17T19:54:00.840Z,102044.86
2017-12-17T19:56:29.476Z,102045.22
2017-12-17T19:58:58.073Z,102031.91
2017-12-17T20:01:27.544Z,102047.67
2017-12-17T20:03:56.705Z,102041.87
2017-12-17T20:06:25.356Z,102045.98
2017-12-17T20:08:54.760Z,102039.16
2017-12-17T20:11:24.165Z,102039.86
2017-12-17T20:13:52.746Z,102039.02
2017-12-17T20:16:22.197Z,102046.05
2017-12-17T20:18:50.913Z,102043.29
2017-12-17T20:21:19.559Z,102043.57
2017-12-17T20:23:48.245Z,102043.66
2017-12-17T20:26:17.155Z,102046.27
2017-12-17T20:28:45.884Z,102038.18
2017-12-17T20:31:14.714Z,102042.31
2017-12-17T20:33:43.657Z,102036.89
2017-12-17T20:36:13.087Z,102039.25
2017-12-17T20:38:42.512Z,102043.87
2017-12-17T20:41:11.239Z,102040.63
2017-12-17T20:43:40.659Z,102033.03
2017-12-17T20:46:09.294Z,102041.64
2017-12-17T20:48:38.022Z,102046.48
2017-12-17T20:51:06.388Z,102047.84
2017-12-17T20:53:35.494Z,102042.81
2017-12-17T20:56:04.353Z,102039.94
2017-12-17T20:58:32.764Z,102043.36
2017-12-17T21:01:01.140Z,102040.69
2017-12-17T21:03:29.623Z,102032.12
2017-12-17T21:05:58.003Z,102034.19
2017-12-17T21:08:26.398Z,102034.40
2017-12-17T21:10:55.944Z,102032.91
2017-12-17T21:13:25.099Z,102026.55
2017-12-17T21:15:53.493Z,102032.70
2017-12-17T21:18:21.833Z,102025.19
2017-12-17T21:20:50.961Z,102025.28
2017-12-17T21:23:19.349Z,102020.64
2017-12-17T21:25:47.903Z,102031.34
2017-12-17T21:28:17.095Z,102023.41
2017-12-17T21:30:45.475Z,102021.58
2017-12-17T21:33:14.921Z,102024.53
2017-12-17T21:35:43.302Z,102018.95
2017-12-17T21:38:11.688Z,102019.08
2017-12-17T21:40:40.071Z,102012.22
2017-12-17T21:43:08.406Z,102029.23
2017-12-17T21:45:36.777Z,102028.78
2017-12-17T21:48:05.270Z,102020.81
2017-12-17T21:50:33.699Z,102023.00
2017-12-17T21:53:02.069Z,102027.22
2017-12-17T21:55:30.510Z,102032.84
2017-12-17T21:57:58.885Z,102024.16
2017-12-17T22:00:27.287Z,102022.31
2017-12-17T22:02:55.686Z,102024.10
2017-12-17T22:05:24.026Z,102018.30
2017-12-17T22:07:52.345Z,102013.77
2017-12-17T22:10:20.694Z,102012.58
2017-12-17T22:12:49.022Z,102002.76
2017-12-17T22:15:17.427Z,102001.27
2017-12-17T22:17:47.069Z,101998.24
2017-12-17T22:20:15.796Z,101995.02
2017-12-17T22:22:44.421Z,101993.96
2017-12-17T22:25:12.807Z,101987.25
2017-12-17T22:27:41.186Z,101978.69
2017-12-17T22:30:09.531Z,101978.25
2017-12-17T22:32:37.926Z,101975.86
2017-12-17T22:35:07.217Z,101978.37
2017-12-17T22:37:36.384Z,101972.87
2017-12-17T22:40:09.079Z,101972.09
2017-12-17T22:42:37.444Z,101971.53
2017-12-17T22:45:06.997Z,101959.46
2017-12-17T22:47:35.373Z,101965.72
2017-12-17T22:50:03.812Z,101969.17
2017-12-17T22:52:33.124Z,101969.09
2017-12-17T22:55:01.499Z,101979.09
2017-12-17T22:57:30.379Z,101992.72
2017-12-17T22:59:58.714Z,101983.92
2017-12-17T23:02:27.159Z,101979.70
2017-12-17T23:04:55.535Z,101970.34
2017-12-17T23:07:24.075Z,101963.38
2017-12-17T23:09:52.447Z,101958.86
2017-12-17T23:12:22.191Z,101949.27
2017-12-17T23:14:50.770Z,101948.08
2017-12-17T23:17:19.492Z,101938.25
2017-12-17T23:19:48.624Z,101947.23
2017-12-17T23:22:17.354Z,101948.95
2017-12-17T23:24:45.807Z,101944.55
2017-12-17T23:27:14.176Z,101942.41
2017-12-17T23:29:42.720Z,101938.08
2017-12-17T23:32:11.182Z,101934.94
2017-12-17T23:34:39.545Z,101924.83
2017-12-17T23:37:07.925Z,101929.14
2017-12-17T23:39:36.360Z,101931.87
2017-12-17T23:42:04.719Z,101922.59
2017-12-17T23:44:33.804Z,101917.21
2017-12-17T23:47:02.428Z,101913.44
2017-12-17T23:49:30.809Z,101907.70
2017-12-17T23:51:59.186Z,101907.25
2017-12-17T23:54:28.303Z,101903.38
2017-12-17T23:56:56.632Z,101905.23
2017-12-17T23:59:25.765Z,101903.95
